| time (UTC) | temp C | wind direction | speed KPH | gust KPH | rain 1hr cm | rain 24hr cm | rain mn cm | humidity % | barometer mb |
| 20260503223507 | 13 | 311 | 9.7 | 22.5 | 0.00 | 0.18 | 0.00 | 100 | 1017.1 |
| 20260503223012 | 13 | 311 | 8.0 | 19.3 | 0.00 | 0.18 | 0.00 | 100 | 1017.2 |
| 20260503222508 | 13 | 312 | 9.7 | 19.3 | 0.00 | 0.18 | 0.00 | 100 | 1017.1 |
| 20260503222006 | 13 | 311 | 8.0 | 17.7 | 0.00 | 0.20 | 0.00 | 100 | 1017.1 |
| 20260503221528 | 14 | 311 | 11.3 | 19.3 | 0.00 | 0.20 | 0.00 | 100 | 1017.1 |
| 20260503221008 | 14 | 311 | 9.7 | 19.3 | 0.00 | 0.20 | 0.00 | 100 | 1017.0 |
| 20260503220508 | 13 | 311 | 6.4 | 19.3 | 0.00 | 0.20 | 0.00 | 100 | 1017.0 |
| 20260503220024 | 13 | 311 | 9.7 | 19.3 | 0.00 | 0.20 | 0.00 | 100 | 1017.1 |
| 20260503215509 | 13 | 311 | 9.7 | 19.3 | 0.00 | 0.20 | 0.00 | 100 | 1017.0 |
| 20260503215008 | 13 | 311 | 11.3 | 19.3 | 0.00 | 0.23 | 0.00 | 100 | 1017.1 |
| 20260503214526 | 13 | 312 | 12.9 | 19.3 | 0.00 | 0.23 | 0.00 | 100 | 1017.1 |
| 20260503214015 | 14 | 311 | 9.7 | 22.5 | 0.00 | 0.23 | 0.00 | 100 | 1017.2 |
| 20260503213508 | 14 | 311 | 8.0 | 22.5 | 0.00 | 0.25 | 0.00 | 100 | 1017.3 |
| 20260503213032 | 14 | 311 | 12.9 | 20.9 | 0.00 | 0.25 | 0.00 | 100 | 1017.3 |
| 20260503212508 | 14 | 311 | 8.0 | 20.9 | 0.00 | 0.25 | 0.00 | 100 | 1017.4 |
| 20260503212006 | 14 | 311 | 11.3 | 19.3 | 0.00 | 0.25 | 0.00 | 100 | 1017.3 |
| 20260503211518 | 14 | 311 | 9.7 | 24.1 | 0.00 | 0.25 | 0.00 | 100 | 1017.4 |
| 20260503211009 | 14 | 311 | 11.3 | 24.1 | 0.00 | 0.25 | 0.00 | 100 | 1017.3 |
| 20260503210509 | 14 | 311 | 12.9 | 24.1 | 0.00 | 0.28 | 0.00 | 100 | 1017.3 |
| 20260503210022 | 14 | 311 | 11.3 | 20.9 | 0.00 | 0.28 | 0.00 | 100 | 1017.3 |
| 20260503205507 | 15 | 312 | 12.9 | 19.3 | 0.00 | 0.28 | 0.00 | 100 | 1017.2 |
| 20260503205010 | 15 | 311 | 8.0 | 22.5 | 0.00 | 0.30 | 0.00 | 100 | 1017.2 |
| 20260503204525 | 15 | 311 | 12.9 | 22.5 | 0.00 | 0.30 | 0.00 | 100 | 1017.2 |
| 20260503204010 | 15 | 311 | 11.3 | 20.9 | 0.00 | 0.33 | 0.00 | 100 | 1017.1 |
| 20260503203507 | 15 | 311 | 11.3 | 20.9 | 0.00 | 0.33 | 0.00 | 100 | 1017.1 |
| 20260503203029 | 16 | 310 | 6.4 | 14.5 | 0.00 | 0.33 | 0.00 | 100 | 1017.1 |
| 20260503202509 | 17 | 311 | 6.4 | 12.9 | 0.00 | 0.33 | 0.00 | 100 | 1017.1 |
| 20260503202012 | 17 | 313 | 6.4 | 14.5 | 0.00 | 0.33 | 0.00 | 100 | 1017.0 |
| 20260503201530 | 17 | 314 | 6.4 | 16.1 | 0.00 | 0.33 | 0.00 | 100 | 1017.0 |
| 20260503201011 | 17 | 313 | 9.7 | 17.7 | 0.00 | 0.33 | 0.00 | 100 | 1016.9 |
| 20260503200506 | 16 | 313 | 6.4 | 19.3 | 0.00 | 0.33 | 0.00 | 100 | 1017.0 |
| 20260503200027 | 16 | 314 | 9.7 | 19.3 | 0.00 | 0.33 | 0.00 | 100 | 1017.0 |
| 20260503195507 | 16 | 313 | 9.7 | 17.7 | 0.00 | 0.36 | 0.00 | 100 | 1017.1 |
| 20260503195007 | 16 | 314 | 9.7 | 16.1 | 0.00 | 0.36 | 0.00 | 100 | 1017.1 |
| 20260503194527 | 16 | 313 | 8.0 | 17.7 | 0.00 | 0.36 | 0.00 | 100 | 1017.2 |
| 20260503194009 | 16 | 313 | 11.3 | 20.9 | 0.00 | 0.36 | 0.00 | 100 | 1017.2 |
| 20260503193513 | 17 | 314 | 11.3 | 20.9 | 0.00 | 0.38 | 0.00 | 100 | 1017.4 |
| 20260503193024 | 17 | 313 | 12.9 | 19.3 | 0.00 | 0.38 | 0.00 | 100 | 1017.3 |
| 20260503192509 | 17 | 313 | 9.7 | 19.3 | 0.00 | 0.38 | 0.00 | 100 | 1017.4 |
| 20260503192015 | 17 | 313 | 11.3 | 19.3 | 0.00 | 0.38 | 0.00 | 100 | 1017.5 |
| 20260503191527 | 17 | 313 | 11.3 | 19.3 | 0.00 | 0.38 | 0.00 | 100 | 1017.5 |
| 20260503191009 | 17 | 313 | 11.3 | 19.3 | 0.00 | 0.38 | 0.00 | 100 | 1017.5 |
| 20260503190509 | 17 | 313 | 4.8 | 17.7 | 0.00 | 0.38 | 0.00 | 100 | 1017.6 |
| 20260503190029 | 17 | 314 | 8.0 | 17.7 | 0.00 | 0.38 | 0.00 | 100 | 1017.8 |
| 20260503185507 | 17 | 314 | 8.0 | 16.1 | 0.00 | 0.38 | 0.00 | 100 | 1017.7 |
| 20260503185009 | 17 | 313 | 8.0 | 14.5 | 0.00 | 0.38 | 0.00 | 100 | 1017.9 |
| 20260503184526 | 17 | 315 | 6.4 | 14.5 | 0.00 | 0.38 | 0.00 | 100 | 1017.9 |
| 20260503184006 | 17 | 315 | 4.8 | 14.5 | 0.00 | 0.38 | 0.00 | 100 | 1017.9 |
| 20260503183515 | 17 | 313 | 6.4 | 16.1 | 0.00 | 0.38 | 0.00 | 100 | 1018.0 |
| 20260503183034 | 17 | 314 | 8.0 | 16.1 | 0.00 | 0.38 | 0.00 | 100 | 1018.0 |
| 20260503182509 | 17 | 315 | 3.2 | 16.1 | 0.00 | 0.38 | 0.00 | 100 | 1018.0 |
| 20260503182009 | 17 | 315 | 6.4 | 16.1 | 0.00 | 0.38 | 0.00 | 100 | 1018.0 |
| 20260503181547 | 17 | 315 | 6.4 | 14.5 | 0.00 | 0.41 | 0.00 | 100 | 1017.9 |
| 20260503181008 | 17 | 313 | 6.4 | 16.1 | 0.00 | 0.41 | 0.00 | 100 | 1017.9 |
| 20260503180504 | 17 | 313 | 3.2 | 16.1 | 0.00 | 0.41 | 0.00 | 100 | 1018.0 |
| 20260503180012 | 17 | 313 | 3.2 | 12.9 | 0.00 | 0.41 | 0.00 | 100 | 1018.0 |
| 20260503175504 | 17 | 314 | 8.0 | 14.5 | 0.00 | 0.41 | 0.00 | 100 | 1018.0 |
| 20260503175009 | 17 | 315 | 6.4 | 17.7 | 0.00 | 0.41 | 0.00 | 100 | 1018.0 |
| 20260503174519 | 17 | 314 | 11.3 | 17.7 | 0.00 | 0.41 | 0.00 | 100 | 1018.1 |
| 20260503174007 | 17 | 315 | 9.7 | 17.7 | 0.00 | 0.41 | 0.00 | 100 | 1018.2 |
| 20260503173509 | 16 | 315 | 8.0 | 22.5 | 0.00 | 0.43 | 0.00 | 100 | 1018.1 |
| 20260503173040 | 16 | 314 | 6.4 | 22.5 | 0.00 | 0.43 | 0.00 | 100 | 1018.2 |
| 20260503172502 | 16 | 314 | 11.3 | 19.3 | 0.00 | 0.43 | 0.00 | 100 | 1018.3 |
| 20260503172002 | 16 | 315 | 6.4 | 19.3 | 0.00 | 0.46 | 0.00 | 100 | 1018.2 |
| 20260503171504 | 16 | 315 | 9.7 | 19.3 | 0.00 | 0.46 | 0.00 | 100 | 1018.2 |
| 20260503171004 | 16 | 315 | 6.4 | 19.3 | 0.00 | 0.46 | 0.00 | 100 | 1018.2 |
| 20260503170504 | 16 | 314 | 9.7 | 22.5 | 0.00 | 0.46 | 0.00 | 100 | 1018.2 |
| 20260503151010 | 16 | 309 | 9.7 | 24.1 | 0.00 | 0.48 | 0.00 | 100 | 1018.1 |
| 20260503150517 | 16 | 315 | 12.9 | 24.1 | 0.00 | 0.48 | 0.00 | 100 | 1018.0 |
| 20260503131004 | 15 | 315 | 8.0 | 20.9 | 0.00 | 0.51 | 0.00 | 100 | 1016.9 |
| 20260503130508 | 15 | 315 | 12.9 | 20.9 | 0.00 | 0.53 | 0.00 | 100 | 1016.9 |
| 20260503110504 | 13 | 315 | 12.9 | 25.7 | 0.00 | 0.76 | 0.00 | 100 | 1015.4 |
| 20260503090502 | 13 | 315 | 17.7 | 29.0 | 0.00 | 0.91 | 0.00 | 100 | 1013.8 |
| 20260503081522 | 13 | 316 | 19.3 | 35.4 | 0.00 | 0.91 | 0.00 | 100 | 1013.3 |
| 20260503081008 | 13 | 315 | 24.1 | 35.4 | 0.00 | 0.91 | 0.00 | 100 | 1013.2 |
| 20260503080511 | 13 | 315 | 19.3 | 33.8 | 0.00 | 0.91 | 0.00 | 100 | 1013.1 |
| 20260503072507 | 13 | 315 | 20.9 | 33.8 | 0.00 | 0.94 | 0.00 | 100 | 1012.8 |
| 20260503072005 | 13 | 316 | 17.7 | 32.2 | 0.00 | 0.94 | 0.00 | 100 | 1012.8 |
| 20260503071526 | 13 | 316 | 19.3 | 32.2 | 0.00 | 0.94 | 0.00 | 100 | 1012.7 |
| 20260503071005 | 13 | 316 | 17.7 | 32.2 | 0.00 | 0.94 | 0.00 | 100 | 1012.6 |
| 20260503070508 | 13 | 315 | 19.3 | 32.2 | 0.00 | 0.94 | 0.00 | 100 | 1012.5 |
| 20260503055009 | 13 | 316 | 12.9 | 27.4 | 0.00 | 0.94 | 0.00 | 100 | 1011.6 |
| 20260503054525 | 13 | 316 | 17.7 | 27.4 | 0.00 | 0.94 | 0.00 | 100 | 1011.7 |
| 20260503054011 | 13 | 360 | 16.1 | 29.0 | 0.00 | 0.94 | 0.00 | 100 | 1011.7 |
| 20260503053508 | 13 | 316 | 9.7 | 30.6 | 0.00 | 0.94 | 0.00 | 100 | 1011.6 |
| 20260503053035 | 12 | 317 | 16.1 | 30.6 | 0.00 | 0.94 | 0.00 | 100 | 1011.5 |
| 20260503052503 | 12 | 360 | 19.3 | 30.6 | 0.00 | 0.94 | 0.00 | 100 | 1011.6 |
| 20260503052005 | 12 | 317 | 14.5 | 37.0 | 0.00 | 0.94 | 0.00 | 100 | 1011.6 |
| 20260503051514 | 12 | 316 | 17.7 | 37.0 | 0.00 | 0.94 | 0.00 | 100 | 1011.8 |
| 20260503051017 | 12 | 317 | 19.3 | 37.0 | 0.00 | 0.94 | 0.00 | 100 | 1011.9 |
| 20260503050506 | 12 | 316 | 16.1 | 30.6 | 0.00 | 0.94 | 0.00 | 100 | 1011.9 |
| 20260503050016 | 12 | 306 | 17.7 | 30.6 | 0.00 | 0.94 | 0.00 | 100 | 1011.8 |
| 20260503045510 | 12 | 316 | 14.5 | 27.4 | 0.00 | 0.94 | 0.00 | 100 | 1011.9 |
| 20260503045010 | 12 | 315 | 16.1 | 27.4 | 0.00 | 0.94 | 0.00 | 100 | 1012.0 |
| 20260503044556 | 12 | 316 | 14.5 | 30.6 | 0.00 | 0.94 | 0.00 | 100 | 1012.0 |
| 20260503044008 | 12 | 316 | 16.1 | 33.8 | 0.00 | 0.94 | 0.00 | 100 | 1011.9 |
| 20260503043508 | 12 | 316 | 17.7 | 33.8 | 0.00 | 0.94 | 0.00 | 100 | 1011.9 |
| 20260503043025 | 12 | 315 | 17.7 | 37.0 | 0.00 | 0.94 | 0.00 | 100 | 1011.8 |
| 20260503042508 | 12 | 315 | 19.3 | 38.6 | 0.00 | 0.94 | 0.00 | 100 | 1011.9 |
| 20260503042011 | 12 | 315 | 19.3 | 38.6 | 0.00 | 0.94 | 0.00 | 100 | 1011.8 |
| 20260503041527 | 12 | 316 | 19.3 | 33.8 | 0.00 | 0.94 | 0.00 | 100 | 1011.8 |
| 20260503041003 | 12 | 315 | 20.9 | 33.8 | 0.00 | 0.94 | 0.00 | 100 | 1011.7 |
| 20260503040511 | 12 | 315 | 14.5 | 33.8 | 0.00 | 0.94 | 0.00 | 100 | 1011.6 |
| 20260503040018 | 12 | 316 | 17.7 | 33.8 | 0.00 | 0.94 | 0.00 | 100 | 1011.6 |
| 20260503035506 | 12 | 315 | 14.5 | 33.8 | 0.00 | 0.94 | 0.94 | 100 | 1011.5 |
| 20260503035006 | 12 | 316 | 17.7 | 33.8 | 0.00 | 0.94 | 0.94 | 100 | 1011.5 |
| 20260503034518 | 12 | 315 | 14.5 | 32.2 | 0.00 | 0.94 | 0.94 | 100 | 1011.6 |
| 20260503034010 | 12 | 315 | 17.7 | 32.2 | 0.00 | 0.94 | 0.94 | 100 | 1011.5 |
| 20260503033507 | 12 | 315 | 16.1 | 32.2 | 0.00 | 0.94 | 0.94 | 100 | 1011.4 |
| 20260503033026 | 12 | 315 | 12.9 | 29.0 | 0.00 | 0.94 | 0.94 | 100 | 1011.3 |
| 20260503032509 | 12 | 360 | 19.3 | 32.2 | 0.00 | 0.94 | 0.94 | 100 | 1011.3 |
| 20260503032012 | 12 | 316 | 19.3 | 32.2 | 0.00 | 0.94 | 0.94 | 100 | 1011.2 |
| 20260503031527 | 12 | 316 | 14.5 | 32.2 | 0.00 | 0.94 | 0.94 | 100 | 1011.2 |
| 20260503031010 | 12 | 315 | 16.1 | 32.2 | 0.00 | 0.94 | 0.94 | 100 | 1011.1 |
| 20260503030511 | 12 | 315 | 16.1 | 30.6 | 0.00 | 0.94 | 0.94 | 100 | 1011.1 |
| 20260503030032 | 12 | 316 | 16.1 | 30.6 | 0.00 | 0.94 | 0.94 | 100 | 1011.1 |
| 20260503025510 | 12 | 314 | 17.7 | 30.6 | 0.00 | 0.94 | 0.94 | 100 | 1011.1 |
| 20260503025007 | 12 | 315 | 16.1 | 32.2 | 0.00 | 0.94 | 0.94 | 100 | 1011.0 |
| 20260503024516 | 12 | 316 | 17.7 | 32.2 | 0.00 | 0.94 | 0.94 | 100 | 1011.1 |
| 20260503024009 | 12 | 360 | 16.1 | 30.6 | 0.00 | 0.94 | 0.94 | 100 | 1011.0 |
| 20260503023505 | 12 | 360 | 17.7 | 38.6 | 0.00 | 0.94 | 0.94 | 100 | 1010.8 |
| 20260503023019 | 12 | 315 | 16.1 | 38.6 | 0.00 | 0.94 | 0.94 | 100 | 1011.1 |
| 20260503022506 | 12 | 316 | 20.9 | 38.6 | 0.00 | 0.94 | 0.94 | 100 | 1011.2 |
| 20260503022013 | 12 | 360 | 14.5 | 32.2 | 0.00 | 0.94 | 0.94 | 100 | 1011.3 |
| 20260503021524 | 12 | 316 | 16.1 | 37.0 | 0.00 | 0.94 | 0.94 | 100 | 1011.2 |
| 20260503021011 | 11 | 360 | 22.5 | 38.6 | 0.03 | 0.94 | 0.94 | 100 | 1011.2 |
| 20260503020512 | 11 | 316 | 19.3 | 38.6 | 0.03 | 0.94 | 0.94 | 100 | 1011.2 |
| 20260503020034 | 11 | 360 | 19.3 | 35.4 | 0.03 | 0.94 | 0.94 | 100 | 1011.4 |
| 20260503015512 | 11 | 316 | 16.1 | 33.8 | 0.03 | 0.94 | 0.94 | 100 | 1011.7 |
| 20260503015012 | 11 | 360 | 16.1 | 33.8 | 0.03 | 0.94 | 0.94 | 100 | 1011.6 |
| 20260503014526 | 11 | 315 | 17.7 | 33.8 | 0.03 | 0.94 | 0.94 | 100 | 1011.6 |
| 20260503014006 | 11 | 360 | 14.5 | 35.4 | 0.03 | 0.94 | 0.94 | 100 | 1011.4 |
| 20260503013508 | 11 | 360 | 17.7 | 35.4 | 0.05 | 0.94 | 0.94 | 100 | 1011.4 |
| 20260503013020 | 11 | 316 | 14.5 | 33.8 | 0.05 | 0.94 | 0.94 | 100 | 1011.6 |
| 20260503012506 | 11 | 315 | 17.7 | 37.0 | 0.05 | 0.94 | 0.94 | 100 | 1011.6 |
| 20260503012015 | 11 | 316 | 20.9 | 37.0 | 0.05 | 0.94 | 0.94 | 100 | 1011.4 |
| 20260503011525 | 11 | 360 | 24.1 | 38.6 | 0.08 | 0.94 | 0.94 | 100 | 1011.0 |
| 20260503011007 | 11 | 360 | 19.3 | 38.6 | 0.05 | 0.91 | 0.91 | 100 | 1010.9 |
| 20260503010510 | 11 | 316 | 14.5 | 35.4 | 0.05 | 0.91 | 0.91 | 100 | 1011.1 |
| 20260503010024 | 11 | 314 | 19.3 | 35.4 | 0.05 | 0.91 | 0.91 | 100 | 1011.0 |
| 20260503005509 | 11 | 316 | 19.3 | 35.4 | 0.05 | 0.91 | 0.91 | 100 | 1011.0 |
| 20260503005012 | 11 | 360 | 19.3 | 35.4 | 0.05 | 0.91 | 0.91 | 100 | 1010.7 |
| 20260503004526 | 11 | 360 | 14.5 | 37.0 | 0.08 | 0.91 | 0.91 | 100 | 1010.8 |
| 20260503004008 | 11 | 314 | 20.9 | 37.0 | 0.08 | 0.91 | 0.91 | 100 | 1010.8 |
| 20260503003513 | 11 | 360 | 16.1 | 37.0 | 0.05 | 0.89 | 0.89 | 100 | 1011.0 |
| 20260503003032 | 11 | 314 | 20.9 | 37.0 | 0.08 | 0.89 | 0.89 | 100 | 1010.5 |
| 20260503002506 | 11 | 316 | 19.3 | 32.2 | 0.08 | 0.89 | 0.89 | 100 | 1009.9 |
| 20260503002006 | 11 | 316 | 17.7 | 38.6 | 0.08 | 0.89 | 0.89 | 100 | 1010.0 |
| 20260503001520 | 11 | 315 | 22.5 | 38.6 | 0.05 | 0.86 | 0.86 | 100 | 1010.5 |
| 20260503001006 | 11 | 315 | 22.5 | 37.0 | 0.08 | 0.86 | 0.86 | 100 | 1010.6 |
| 20260503000502 | 11 | 315 | 19.3 | 32.2 | 0.08 | 0.86 | 0.86 | 100 | 1010.8 |
| 20260503000013 | 11 | 360 | 19.3 | 35.4 | 0.08 | 0.86 | 0.86 | 100 | 1010.8 |
| 20260502235502 | 11 | 314 | 14.5 | 35.4 | 0.08 | 0.86 | 0.86 | 100 | 1010.8 |
| 20260502235003 | 11 | 360 | 22.5 | 33.8 | 0.08 | 0.86 | 0.86 | 100 | 1010.5 |
| 20260502234509 | 11 | 313 | 19.3 | 35.4 | 0.08 | 0.84 | 0.84 | 100 | 1010.5 |
| 20260502234004 | 11 | 360 | 19.3 | 37.0 | 0.08 | 0.84 | 0.84 | 100 | 1010.7 |
| 20260502233504 | 11 | 360 | 16.1 | 38.6 | 0.08 | 0.84 | 0.84 | 100 | 1010.4 |
| 20260502233012 | 12 | 360 | 20.9 | 38.6 | 0.05 | 0.81 | 0.81 | 100 | 1010.2 |
| 20260502232503 | 12 | 315 | 17.7 | 35.4 | 0.05 | 0.81 | 0.81 | 100 | 1010.3 |
| 20260502232006 | 12 | 360 | 19.3 | 38.6 | 0.08 | 0.81 | 0.81 | 100 | 1010.2 |
| 20260502231526 | 12 | 360 | 20.9 | 38.6 | 0.08 | 0.81 | 0.81 | 100 | 1010.1 |
| 20260502231008 | 12 | 315 | 17.7 | 38.6 | 0.05 | 0.79 | 0.79 | 100 | 1010.1 |
| 20260502230507 | 12 | 315 | 16.1 | 29.0 | 0.05 | 0.79 | 0.79 | 100 | 1009.8 |
| 20260502230023 | 12 | 315 | 11.3 | 32.2 | 0.05 | 0.79 | 0.79 | 100 | 1009.6 |
| 20260502225503 | 12 | 313 | 20.9 | 32.2 | 0.05 | 0.79 | 0.79 | 100 | 1009.4 |
| 20260502225004 | 12 | 316 | 12.9 | 25.7 | 0.08 | 0.79 | 0.79 | 100 | 1009.3 |
| 20260502224507 | 12 | 360 | 11.3 | 27.4 | 0.05 | 0.76 | 0.76 | 100 | 1009.5 |
| 20260502224003 | 12 | 360 | 8.0 | 27.4 | 0.05 | 0.76 | 0.76 | 100 | 1009.5 |